createdAt,value
2017-08-05T00:00:23.341Z,86.12
2017-08-05T00:01:24.579Z,86.02
2017-08-05T00:02:25.877Z,86.12
2017-08-05T00:03:27.118Z,86.21
2017-08-05T00:04:28.359Z,86.27
2017-08-05T00:05:29.739Z,86.55
2017-08-05T00:06:30.973Z,86.55
2017-08-05T00:07:32.232Z,86.27
2017-08-05T00:08:33.450Z,86.36
2017-08-05T00:09:34.689Z,86.36
2017-08-05T00:10:35.961Z,86.36
2017-08-05T00:11:37.188Z,86.94
2017-08-05T00:12:38.449Z,86.84
2017-08-05T00:13:39.762Z,87.51
2017-08-05T00:14:41.027Z,86.84
2017-08-05T00:15:42.278Z,87.03
2017-08-05T00:16:43.513Z,86.94
2017-08-05T00:17:44.756Z,87.03
2017-08-05T00:18:46.093Z,86.94
2017-08-05T00:19:47.376Z,87.32
2017-08-05T00:20:48.715Z,87.41
2017-08-05T00:21:49.951Z,87.41
2017-08-05T00:22:51.190Z,87.41
2017-08-05T00:23:52.458Z,87.51
2017-08-05T00:24:53.699Z,86.74
2017-08-05T00:25:55.060Z,87.32
2017-08-05T00:26:56.297Z,87.51
2017-08-05T00:27:57.544Z,87.41
2017-08-05T00:28:58.787Z,87.9
2017-08-05T00:30:00.038Z,87.41
2017-08-05T00:31:01.396Z,87.9
2017-08-05T00:32:02.559Z,87.61
2017-08-05T00:33:03.809Z,87.9
2017-08-05T00:34:05.100Z,88.09
2017-08-05T00:35:06.331Z,87.66
2017-08-05T00:36:07.582Z,87.47
2017-08-05T00:37:08.826Z,87.95
2017-08-05T00:38:10.090Z,88.13
2017-08-05T00:39:11.428Z,88.04
2017-08-05T00:40:12.670Z,88.13
2017-08-05T00:41:13.912Z,87.95
2017-08-05T00:42:15.155Z,88.04
2017-08-05T00:43:16.458Z,88.71
2017-08-05T00:44:17.725Z,88.43
2017-08-05T00:45:18.970Z,89.09
2017-08-05T00:46:20.203Z,89
2017-08-05T00:47:21.438Z,89.58
2017-08-05T00:48:22.685Z,88.9
2017-08-05T00:49:23.966Z,89.95
2017-08-05T00:50:25.215Z,89.95
2017-08-05T00:51:26.454Z,89.86
2017-08-05T00:52:27.791Z,89.95
2017-08-05T00:53:29.086Z,90.24
2017-08-05T00:54:30.323Z,90.44
2017-08-05T00:55:31.686Z,90.34
2017-08-05T00:56:32.911Z,90.24
2017-08-05T00:57:34.232Z,90.63
2017-08-05T00:58:35.459Z,90.58
2017-08-05T00:59:36.716Z,90.58
2017-08-05T01:00:37.967Z,91.01
2017-08-05T01:01:39.203Z,90.87
2017-08-05T01:02:40.549Z,90.67
2017-08-05T01:03:41.782Z,91.06
2017-08-05T01:04:43.067Z,91.06
2017-08-05T01:05:44.310Z,91.25
2017-08-05T01:06:45.545Z,91.53
2017-08-05T01:07:46.785Z,92.02
2017-08-05T01:08:48.170Z,91.53
2017-08-05T01:09:49.562Z,92.02
2017-08-05T01:10:50.801Z,91.53
2017-08-05T01:11:52.040Z,92.02
2017-08-05T01:12:53.280Z,91.73
2017-08-05T01:13:54.515Z,91.63
2017-08-05T01:14:55.774Z,91.92
2017-08-05T01:15:57.029Z,92.11
2017-08-05T01:16:58.280Z,91.92
2017-08-05T01:17:59.507Z,92.49
2017-08-05T01:19:00.744Z,92.49
2017-08-05T01:20:01.979Z,92.49
2017-08-05T01:21:03.230Z,92.49
2017-08-05T01:22:04.477Z,92.4
2017-08-05T01:23:05.718Z,92.69
2017-08-05T01:24:06.955Z,92.69
2017-08-05T01:25:08.217Z,92.02
2017-08-05T01:26:09.441Z,92.4
2017-08-05T01:27:10.666Z,92.3
2017-08-05T01:28:11.997Z,92.49
2017-08-05T01:29:13.288Z,92.3
2017-08-05T01:30:14.521Z,91.92
2017-08-05T01:31:15.804Z,92.11
2017-08-05T01:32:17.039Z,91.73
2017-08-05T01:33:18.287Z,92.11
2017-08-05T01:34:19.647Z,92.11
2017-08-05T01:35:20.892Z,92.02
2017-08-05T01:36:22.127Z,92.11
2017-08-05T01:37:23.366Z,92.02
2017-08-05T01:38:24.605Z,91.73
2017-08-05T01:39:26.076Z,91.06
2017-08-05T01:40:27.425Z,91.73
2017-08-05T01:41:28.662Z,91.16
2017-08-05T01:42:29.904Z,91.25
2017-08-05T01:43:31.142Z,91.68
2017-08-05T01:44:32.373Z,91.49
2017-08-05T01:45:33.611Z,92.11
2017-08-05T01:46:34.849Z,91.97
2017-08-05T01:47:36.091Z,91.97
2017-08-05T01:48:37.331Z,91.78
2017-08-05T01:49:38.575Z,91.88
2017-08-05T01:50:39.810Z,91.88
2017-08-05T01:51:41.042Z,91.97
2017-08-05T01:52:42.442Z,92.64
2017-08-05T01:53:43.797Z,92.07
2017-08-05T01:54:45.093Z,92.45
2017-08-05T01:55:46.319Z,92.49
2017-08-05T01:56:47.562Z,92.21
2017-08-05T01:57:48.801Z,92.21
2017-08-05T01:58:50.030Z,92.3
2017-08-05T01:59:51.305Z,92.49
2017-08-05T02:00:52.520Z,92.4
2017-08-05T02:01:53.849Z,92.59
2017-08-05T02:02:55.105Z,92.4
2017-08-05T02:03:56.335Z,92.4
2017-08-05T02:04:57.665Z,92.49
2017-08-05T02:05:58.903Z,92.78
2017-08-05T02:07:00.152Z,92.88
2017-08-05T02:08:01.397Z,92.78
2017-08-05T02:09:02.640Z,92.35
2017-08-05T02:10:03.879Z,92.64
2017-08-05T02:11:05.120Z,92.83
2017-08-05T02:12:06.360Z,93.02
2017-08-05T02:13:07.699Z,93.4
2017-08-05T02:14:08.931Z,93.6
2017-08-05T02:15:10.161Z,93.79
2017-08-05T02:16:11.396Z,94.07
2017-08-05T02:17:12.642Z,94.26
2017-08-05T02:18:13.882Z,94.55
2017-08-05T02:19:15.273Z,94.26
2017-08-05T02:20:16.502Z,94.55
2017-08-05T02:21:17.746Z,94.55
2017-08-05T02:22:18.968Z,94.36
2017-08-05T02:23:20.209Z,94.55
2017-08-05T02:24:21.456Z,94.31
2017-08-05T02:25:22.699Z,94.65
2017-08-05T02:26:23.944Z,94.65
2017-08-05T02:27:25.226Z,94.41
2017-08-05T02:28:26.445Z,94.36
2017-08-05T02:29:27.691Z,94.21
2017-08-05T02:30:28.924Z,94.6
2017-08-05T02:31:30.183Z,94.7
2017-08-05T02:32:31.422Z,94.7
2017-08-05T02:33:32.669Z,94.7
2017-08-05T02:34:33.928Z,94.7
2017-08-05T02:35:35.162Z,94.41
2017-08-05T02:36:36.399Z,93.84
2017-08-05T02:37:37.662Z,93.84
2017-08-05T02:38:38.908Z,93.74
2017-08-05T02:39:40.199Z,93.93
2017-08-05T02:40:41.438Z,94.02
2017-08-05T02:41:42.673Z,94.02
2017-08-05T02:42:43.914Z,94.12
2017-08-05T02:43:45.148Z,93.64
2017-08-05T02:44:46.396Z,93.26
2017-08-05T02:45:47.750Z,93.64
2017-08-05T02:46:49.004Z,93.55
2017-08-05T02:47:50.223Z,93.64
2017-08-05T02:48:51.468Z,93.79
2017-08-05T02:49:52.708Z,93.98
2017-08-05T02:50:53.975Z,94.02
2017-08-05T02:51:55.338Z,93.3
2017-08-05T02:52:56.598Z,92.92
2017-08-05T02:53:57.838Z,93.02
2017-08-05T02:54:59.083Z,93.3
2017-08-05T02:56:00.412Z,92.83
2017-08-05T02:57:01.705Z,93.12
2017-08-05T02:58:02.931Z,93.12
2017-08-05T02:59:04.190Z,92.63
2017-08-05T03:00:05.411Z,92.54
2017-08-05T03:01:06.641Z,92.63
2017-08-05T03:02:07.998Z,92.25
2017-08-05T03:03:09.229Z,92.06
2017-08-05T03:04:10.572Z,92.06
2017-08-05T03:05:11.832Z,92.06
2017-08-05T03:06:13.096Z,92.25
2017-08-05T03:07:14.350Z,92.06
2017-08-05T03:08:15.570Z,92.35
2017-08-05T03:09:16.803Z,92.25
2017-08-05T03:10:18.146Z,92.25
2017-08-05T03:11:19.383Z,92.06
2017-08-05T03:12:20.618Z,92.35
2017-08-05T03:13:21.851Z,92.92
2017-08-05T03:14:23.107Z,92.16
2017-08-05T03:15:24.331Z,92.73
2017-08-05T03:16:25.666Z,91.77
2017-08-05T03:17:26.899Z,92.35
2017-08-05T03:18:28.134Z,92.06
2017-08-05T03:19:29.364Z,91.87
2017-08-05T03:20:30.593Z,91.92
2017-08-05T03:21:31.870Z,91.72
2017-08-05T03:22:33.107Z,91.34
2017-08-05T03:23:34.360Z,91.44
2017-08-05T03:24:35.659Z,91.53
2017-08-05T03:25:36.898Z,91.15
2017-08-05T03:26:38.145Z,90.86
2017-08-05T03:27:39.372Z,90.86
2017-08-05T03:28:40.605Z,90.86
2017-08-05T03:29:41.948Z,90.77
2017-08-05T03:30:43.285Z,90.58
2017-08-05T03:31:44.521Z,90.67
2017-08-05T03:32:45.763Z,90.67
2017-08-05T03:33:47.000Z,90.29
2017-08-05T03:34:48.256Z,90.19
2017-08-05T03:35:49.532Z,90.19
2017-08-05T03:36:50.749Z,90.19
2017-08-05T03:37:52.039Z,90.19
2017-08-05T03:38:53.270Z,90.09
2017-08-05T03:39:54.508Z,90.19
2017-08-05T03:40:55.746Z,90
2017-08-05T03:41:56.984Z,90.09
2017-08-05T03:42:58.230Z,90.09
2017-08-05T03:43:59.517Z,90.09
2017-08-05T03:45:00.749Z,89.9
2017-08-05T03:46:01.995Z,89.52
2017-08-05T03:47:03.247Z,89.43
2017-08-05T03:48:04.528Z,90.39
2017-08-05T03:49:05.835Z,90.09
2017-08-05T03:50:07.175Z,90
2017-08-05T03:51:08.329Z,90
2017-08-05T03:52:09.584Z,90.19
2017-08-05T03:53:10.804Z,90.39
2017-08-05T03:54:12.419Z,90.53
2017-08-05T03:55:14.615Z,90.09
2017-08-05T03:56:15.863Z,89.95
2017-08-05T03:57:17.104Z,88.99
2017-08-05T03:58:18.340Z,89.37
2017-08-05T03:59:19.643Z,89.66
2017-08-05T04:00:20.873Z,89.47
2017-08-05T04:01:22.124Z,89.18
2017-08-05T04:02:23.343Z,89.47
2017-08-05T04:03:24.579Z,89.47
2017-08-05T04:04:25.947Z,89.66
2017-08-05T04:05:27.170Z,89.76
2017-08-05T04:06:28.418Z,90.14
2017-08-05T04:07:29.658Z,90.23
2017-08-05T04:08:30.891Z,90.43
2017-08-05T04:09:32.138Z,90.23
2017-08-05T04:10:33.493Z,90.23
2017-08-05T04:11:34.722Z,90.14
2017-08-05T04:12:36.041Z,90.14
2017-08-05T04:13:37.278Z,89.28
2017-08-05T04:14:38.509Z,89.47
2017-08-05T04:15:39.760Z,89.28
2017-08-05T04:16:40.997Z,89.47
2017-08-05T04:17:42.250Z,89.47
2017-08-05T04:18:43.571Z,89.09
2017-08-05T04:19:44.800Z,89.28
2017-08-05T04:20:46.035Z,89.28
2017-08-05T04:21:47.291Z,89.28
2017-08-05T04:22:48.521Z,89.28
2017-08-05T04:23:49.805Z,89.76
2017-08-05T04:24:51.149Z,89.76
2017-08-05T04:25:52.358Z,89.37
2017-08-05T04:26:53.599Z,89.57
2017-08-05T04:27:54.832Z,89.28
2017-08-05T04:28:56.077Z,88.8
2017-08-05T04:29:57.489Z,88.99
2017-08-05T04:30:58.714Z,88.61
2017-08-05T04:31:59.955Z,88.32
2017-08-05T04:33:01.193Z,88.27
2017-08-05T04:34:02.436Z,88.7
2017-08-05T04:35:03.812Z,88.65
2017-08-05T04:36:05.049Z,88.75
2017-08-05T04:37:06.296Z,88.7
2017-08-05T04:38:07.533Z,88.32
2017-08-05T04:39:08.767Z,88.9
2017-08-05T04:40:10.011Z,88.46
2017-08-05T04:41:11.266Z,88.27
2017-08-05T04:42:12.482Z,88.65
2017-08-05T04:43:13.816Z,88.65
2017-08-05T04:44:15.056Z,88.27
2017-08-05T04:45:16.294Z,88.08
2017-08-05T04:46:17.734Z,88.84
2017-08-05T04:47:18.992Z,88.65
2017-08-05T04:48:20.259Z,88.46
2017-08-05T04:49:21.520Z,88.65
2017-08-05T04:50:22.763Z,88.84
2017-08-05T04:51:24.004Z,88.65
2017-08-05T04:52:25.238Z,88.08
2017-08-05T04:53:26.520Z,88.27
2017-08-05T04:54:27.811Z,88.17
2017-08-05T04:55:29.046Z,87.98
2017-08-05T04:56:30.297Z,88.84
2017-08-05T04:57:31.532Z,88.84
2017-08-05T04:58:32.774Z,87.98
2017-08-05T04:59:34.008Z,88.46
2017-08-05T05:00:35.239Z,88.17
2017-08-05T05:01:36.492Z,87.98
2017-08-05T05:02:37.793Z,87.98
2017-08-05T05:03:39.059Z,88.27
2017-08-05T05:04:40.296Z,88.65
2017-08-05T05:05:41.528Z,88.17
2017-08-05T05:06:42.779Z,87.88
2017-08-05T05:07:44.016Z,87.79
2017-08-05T05:08:45.496Z,88.27
2017-08-05T05:09:46.743Z,88.84
2017-08-05T05:10:47.988Z,88.56
2017-08-05T05:11:49.222Z,88.65
2017-08-05T05:12:50.511Z,88.65
2017-08-05T05:13:51.756Z,88.89
2017-08-05T05:14:52.988Z,88.79
2017-08-05T05:15:54.253Z,88.79
2017-08-05T05:16:55.588Z,89.47
2017-08-05T05:17:56.821Z,88.98
2017-08-05T05:18:58.097Z,89.42
2017-08-05T05:19:59.309Z,89.47
2017-08-05T05:21:00.624Z,90.23
2017-08-05T05:22:01.883Z,90.47
2017-08-05T05:23:03.115Z,90.14
2017-08-05T05:24:04.368Z,90.95
2017-08-05T05:25:05.590Z,90.95
2017-08-05T05:26:06.825Z,91.63
2017-08-05T05:27:08.090Z,91.91
2017-08-05T05:28:09.454Z,91.91
2017-08-05T05:29:10.686Z,92.97
2017-08-05T05:30:11.919Z,93.44
2017-08-05T05:31:13.156Z,94.4
2017-08-05T05:32:14.425Z,94.89
2017-08-05T05:33:15.780Z,95.56
2017-08-05T05:34:17.019Z,94.89
2017-08-05T05:35:18.250Z,94.69
2017-08-05T05:36:19.506Z,95.75
2017-08-05T05:37:20.763Z,96.32
2017-08-05T05:38:22.010Z,97.18
2017-08-05T05:39:23.245Z,97.09
2017-08-05T05:40:24.499Z,97.85
2017-08-05T05:41:25.804Z,97.85
2017-08-05T05:42:27.044Z,98.05
2017-08-05T05:43:28.277Z,98.72
2017-08-05T05:44:29.522Z,98.72
2017-08-05T05:45:30.747Z,99.01
2017-08-05T05:46:32.057Z,99.77
2017-08-05T05:47:33.347Z,99.87
2017-08-05T05:48:34.613Z,99.77
2017-08-05T05:49:35.837Z,99.96
2017-08-05T05:50:37.074Z,99.99
2017-08-05T05:51:38.319Z,99.99
2017-08-05T05:52:39.598Z,99.99
2017-08-05T05:53:40.852Z,99.99
2017-08-05T05:54:42.082Z,99.99
2017-08-05T05:55:43.375Z,99.99
2017-08-05T05:56:44.625Z,99.99
2017-08-05T05:57:45.921Z,99.99
2017-08-05T05:58:47.139Z,99.99
2017-08-05T05:59:48.385Z,99.99
2017-08-05T06:00:49.740Z,99.99
2017-08-05T06:01:50.981Z,99.99
2017-08-05T06:02:52.212Z,99.99
2017-08-05T06:03:53.451Z,99.99
2017-08-05T06:04:54.802Z,99.99
2017-08-05T06:05:56.092Z,99.99
2017-08-05T06:06:57.377Z,99.99
2017-08-05T06:07:58.631Z,99.99
2017-08-05T06:08:59.864Z,99.99
2017-08-05T06:10:01.097Z,99.99
2017-08-05T06:11:02.424Z,99.99
2017-08-05T06:12:03.697Z,99.99
2017-08-05T06:13:04.955Z,99.99
2017-08-05T06:14:06.186Z,99.99
2017-08-05T06:15:07.442Z,99.99
2017-08-05T06:16:08.680Z,99.99
2017-08-05T06:17:09.925Z,99.99
2017-08-05T06:18:11.158Z,99.99
2017-08-05T06:19:12.486Z,99.99
2017-08-05T06:20:13.721Z,99.99
2017-08-05T06:21:14.954Z,99.99
2017-08-05T06:22:16.259Z,99.99
2017-08-05T06:23:17.507Z,99.99
2017-08-05T06:24:18.789Z,99.99
2017-08-05T06:25:20.067Z,99.99
2017-08-05T06:26:21.379Z,99.99
2017-08-05T06:27:22.611Z,99.99
2017-08-05T06:28:23.866Z,99.99
2017-08-05T06:29:25.101Z,99.99
2017-08-05T06:30:26.338Z,99.99
2017-08-05T06:31:27.579Z,99.99
2017-08-05T06:32:28.928Z,99.99
2017-08-05T06:33:30.167Z,99.99
2017-08-05T06:34:31.398Z,99.99
2017-08-05T06:35:32.647Z,99.99
2017-08-05T06:36:33.896Z,99.87
2017-08-05T06:37:35.152Z,99.99
2017-08-05T06:38:36.393Z,98.43
2017-08-05T06:39:37.633Z,98.33
2017-08-05T06:40:38.881Z,98.82
2017-08-05T06:41:40.231Z,97.56
2017-08-05T06:42:41.471Z,97.66
2017-08-05T06:43:42.730Z,97.09
2017-08-05T06:44:44.091Z,97.28
2017-08-05T06:45:45.342Z,97.86
2017-08-05T06:46:46.597Z,98.33
2017-08-05T06:47:47.818Z,98.14
2017-08-05T06:48:49.055Z,97.38
2017-08-05T06:49:50.531Z,97.47
2017-08-05T06:50:51.767Z,98.24
2017-08-05T06:51:53.003Z,97.38
2017-08-05T06:52:54.285Z,97.19
2017-08-05T06:53:55.519Z,97.81
2017-08-05T06:54:56.822Z,98.48
2017-08-05T06:55:58.158Z,99.05
2017-08-05T06:56:59.409Z,99.53
2017-08-05T06:58:00.665Z,99.39
2017-08-05T06:59:01.900Z,99.2
2017-08-05T07:00:03.138Z,99.49
2017-08-05T07:01:04.445Z,99.05
2017-08-05T07:02:05.808Z,99.99
2017-08-05T07:03:07.044Z,99.99
2017-08-05T07:04:08.296Z,99.99
2017-08-05T07:05:09.543Z,99.58
2017-08-05T07:06:10.770Z,99.91
2017-08-05T07:07:12.031Z,99.99
2017-08-05T07:08:13.274Z,99.99
2017-08-05T07:09:14.537Z,99.99
2017-08-05T07:10:15.770Z,99.99
2017-08-05T07:11:17.008Z,99.99
2017-08-05T07:12:18.248Z,99.99
2017-08-05T07:13:19.504Z,99.99
2017-08-05T07:14:20.725Z,99.99
2017-08-05T07:15:22.137Z,99.99
2017-08-05T07:16:23.484Z,99.99
2017-08-05T07:17:24.718Z,99.99
2017-08-05T07:18:25.952Z,99.99
2017-08-05T07:19:27.196Z,99.99
2017-08-05T07:20:28.454Z,99.99
2017-08-05T07:21:29.773Z,99.99
2017-08-05T07:22:31.009Z,99.99
2017-08-05T07:23:32.279Z,99.99
2017-08-05T07:24:33.488Z,99.99
2017-08-05T07:25:34.742Z,99.99
2017-08-05T07:26:36.031Z,99.99
2017-08-05T07:27:37.290Z,99.99
2017-08-05T07:28:38.594Z,99.99
2017-08-05T07:29:39.968Z,99.99
2017-08-05T07:30:41.221Z,99.99
2017-08-05T07:31:42.465Z,99.99
2017-08-05T07:32:43.721Z,99.99
2017-08-05T07:33:44.960Z,99.99
2017-08-05T07:34:46.242Z,99.99
2017-08-05T07:35:47.580Z,99.99
2017-08-05T07:36:48.809Z,99.99
2017-08-05T07:37:50.054Z,99.99
2017-08-05T07:38:51.305Z,99.99
2017-08-05T07:39:52.582Z,99.99
2017-08-05T07:40:53.892Z,99.99
2017-08-05T07:41:55.192Z,99.99
2017-08-05T07:42:56.427Z,99.99
2017-08-05T07:43:57.695Z,99.99
2017-08-05T07:44:58.916Z,99.99
2017-08-05T07:46:00.196Z,99.99
2017-08-05T07:47:01.442Z,99.99
2017-08-05T07:48:02.690Z,99.82
2017-08-05T07:49:03.945Z,99.99
2017-08-05T07:50:05.194Z,99.92
2017-08-05T07:51:06.419Z,99.99
2017-08-05T07:52:07.668Z,99.49
2017-08-05T07:53:09.003Z,99.1
2017-08-05T07:54:10.339Z,97.66
2017-08-05T07:55:11.579Z,98.34
2017-08-05T07:56:12.816Z,97.76
2017-08-05T07:57:14.184Z,97.09
2017-08-05T07:58:15.420Z,96.61
2017-08-05T07:59:16.742Z,96.22
2017-08-05T08:00:18.003Z,96.13
2017-08-05T08:01:19.254Z,95.55
2017-08-05T08:02:20.493Z,96.32
2017-08-05T08:03:21.746Z,96.03
2017-08-05T08:04:22.964Z,95.45
2017-08-05T08:05:24.301Z,96.13
2017-08-05T08:06:25.524Z,96.61
2017-08-05T08:07:26.777Z,97.47
2017-08-05T08:08:28.022Z,97.19
2017-08-05T08:09:29.270Z,96.99
2017-08-05T08:10:30.749Z,97.28
2017-08-05T08:11:32.063Z,96.61
2017-08-05T08:12:33.354Z,96.42
2017-08-05T08:13:34.589Z,96.89
2017-08-05T08:14:35.824Z,96.89
2017-08-05T08:15:37.068Z,96.61
2017-08-05T08:16:38.378Z,96.03
2017-08-05T08:17:39.640Z,96.37
2017-08-05T08:18:40.869Z,96.27
2017-08-05T08:19:42.134Z,96.08
2017-08-05T08:20:43.364Z,95.89
2017-08-05T08:21:44.604Z,95.31
2017-08-05T08:22:45.873Z,95.12
2017-08-05T08:23:47.104Z,94.64
2017-08-05T08:24:48.399Z,94.64
2017-08-05T08:25:49.648Z,94.26
2017-08-05T08:26:50.889Z,93.87
2017-08-05T08:27:52.141Z,93.58
2017-08-05T08:28:53.387Z,93.01
2017-08-05T08:29:54.678Z,93.1
2017-08-05T08:30:55.946Z,93.01
2017-08-05T08:31:57.198Z,93.49
2017-08-05T08:32:58.435Z,94.35
2017-08-05T08:33:59.666Z,93.87
2017-08-05T08:35:00.900Z,93.29
2017-08-05T08:36:02.140Z,92.81
2017-08-05T08:37:03.403Z,93.1
2017-08-05T08:38:04.668Z,93.53
2017-08-05T08:39:05.920Z,93.44
2017-08-05T08:40:07.163Z,92.57
2017-08-05T08:41:08.518Z,93.05
2017-08-05T08:42:09.752Z,92.76
2017-08-05T08:43:11.009Z,92.67
2017-08-05T08:44:12.256Z,92.96
2017-08-05T08:45:13.497Z,92.67
2017-08-05T08:46:14.739Z,93.15
2017-08-05T08:47:15.981Z,93.15
2017-08-05T08:48:17.231Z,93.24
2017-08-05T08:49:18.529Z,92.86
2017-08-05T08:50:19.782Z,90.84
2017-08-05T08:51:21.059Z,90.75
2017-08-05T08:52:22.280Z,90.94
2017-08-05T08:53:23.518Z,91.52
2017-08-05T08:54:24.757Z,91.61
2017-08-05T08:55:26.037Z,91.61
2017-08-05T08:56:27.266Z,91.9
2017-08-05T08:57:28.556Z,91.99
2017-08-05T08:58:29.775Z,92.29
2017-08-05T08:59:31.022Z,91.52
2017-08-05T09:00:32.302Z,90.07
2017-08-05T09:01:33.577Z,89.59
2017-08-05T09:02:34.817Z,89.92
2017-08-05T09:03:36.158Z,89.44
2017-08-05T09:04:37.509Z,89.54
2017-08-05T09:05:38.748Z,88.14
2017-08-05T09:06:40.034Z,87.46
2017-08-05T09:07:41.258Z,86.89
2017-08-05T09:08:42.485Z,86.07
2017-08-05T09:09:43.860Z,84.43
2017-08-05T09:10:45.127Z,81.68
2017-08-05T09:11:46.373Z,80.91
2017-08-05T09:12:47.615Z,81.24
2017-08-05T09:13:48.850Z,81.24
2017-08-05T09:14:50.191Z,79.98
2017-08-05T09:15:51.452Z,79.79
2017-08-05T09:16:52.699Z,79.36
2017-08-05T09:17:53.932Z,79.27
2017-08-05T09:18:55.178Z,79.03
2017-08-05T09:19:56.421Z,80.1
2017-08-05T09:20:57.815Z,80.43
2017-08-05T09:21:59.055Z,80.71
2017-08-05T09:23:00.305Z,81.2
2017-08-05T09:24:01.553Z,82.06
2017-08-05T09:25:02.812Z,81.68
2017-08-05T09:26:04.160Z,81.29
2017-08-05T09:27:05.412Z,81.77
2017-08-05T09:28:06.712Z,82.26
2017-08-05T09:29:07.959Z,80.43
2017-08-05T09:30:09.322Z,80.23
2017-08-05T09:31:10.569Z,80.14
2017-08-05T09:32:11.807Z,80.33
2017-08-05T09:33:13.115Z,80.1
2017-08-05T09:34:14.467Z,80.1
2017-08-05T09:35:15.704Z,80.38
2017-08-05T09:36:16.963Z,81.7
2017-08-05T09:37:18.195Z,82.37
2017-08-05T09:38:19.437Z,83.04
2017-08-05T09:39:20.676Z,83.96
2017-08-05T09:40:22.186Z,84.54
2017-08-05T09:41:23.472Z,85.4
2017-08-05T09:42:24.700Z,85.02
2017-08-05T09:43:25.962Z,84.63
2017-08-05T09:44:27.187Z,84.25
2017-08-05T09:45:28.442Z,84.92
2017-08-05T09:46:29.696Z,85.69
2017-08-05T09:47:30.912Z,86.46
2017-08-05T09:48:32.167Z,85.88
2017-08-05T09:49:33.390Z,85.21
2017-08-05T09:50:34.623Z,85.6
2017-08-05T09:51:35.967Z,84.63
2017-08-05T09:52:37.144Z,85.21
2017-08-05T09:53:38.380Z,85.88
2017-08-05T09:54:39.629Z,86.75
2017-08-05T09:55:40.880Z,86.75
2017-08-05T09:56:42.145Z,87.9
2017-08-05T09:57:43.389Z,86.69
2017-08-05T09:58:44.647Z,85.25
2017-08-05T09:59:45.949Z,84.87
2017-08-05T10:00:47.209Z,85.16
2017-08-05T10:01:48.444Z,85.35
2017-08-05T10:02:49.700Z,84.58
2017-08-05T10:03:50.950Z,84.72
2017-08-05T10:04:52.177Z,84.81
2017-08-05T10:05:53.430Z,84.23
2017-08-05T10:06:54.695Z,82.54
2017-08-05T10:07:55.937Z,81.62
2017-08-05T10:08:57.186Z,82.1
2017-08-05T10:09:58.464Z,80.6
2017-08-05T10:10:59.686Z,80.45
2017-08-05T10:12:01.022Z,78.91
2017-08-05T10:13:02.275Z,77.01
2017-08-05T10:14:03.565Z,75.6
2017-08-05T10:15:04.802Z,74.06
2017-08-05T10:16:06.046Z,72.32
2017-08-05T10:17:07.297Z,72.26
2017-08-05T10:18:08.580Z,72.84
2017-08-05T10:19:09.980Z,73.71
2017-08-05T10:20:11.227Z,70.94
2017-08-05T10:21:12.457Z,71.62
2017-08-05T10:22:13.697Z,71.08
2017-08-05T10:23:14.936Z,71.46
2017-08-05T10:24:16.205Z,69.75
2017-08-05T10:25:17.465Z,68.63
2017-08-05T10:26:18.710Z,67.21
2017-08-05T10:27:19.952Z,65.5
2017-08-05T10:28:21.202Z,65.34
2017-08-05T10:29:22.487Z,63.2
2017-08-05T10:30:23.842Z,61.43
2017-08-05T10:31:25.092Z,62.01
2017-08-05T10:32:26.341Z,63.07
2017-08-05T10:33:27.578Z,60.85
2017-08-05T10:34:28.824Z,61.24
2017-08-05T10:35:30.135Z,62.1
2017-08-05T10:36:31.385Z,60.94
2017-08-05T10:37:32.636Z,60.07
2017-08-05T10:38:33.915Z,60.46
2017-08-05T10:39:35.164Z,60.72
2017-08-05T10:40:36.423Z,60.72
2017-08-05T10:41:37.664Z,60.43
2017-08-05T10:42:38.970Z,61.85
2017-08-05T10:43:40.221Z,65.34
2017-08-05T10:44:41.499Z,64.72
2017-08-05T10:45:42.749Z,65.4
2017-08-05T10:46:43.992Z,65.3
2017-08-05T10:47:45.240Z,65.37
2017-08-05T10:48:46.507Z,66.24
2017-08-05T10:49:47.772Z,65.17
2017-08-05T10:50:49.020Z,67.01
2017-08-05T10:51:50.320Z,64.5
2017-08-05T10:52:51.550Z,66.24
2017-08-05T10:53:52.808Z,66.33
2017-08-05T10:54:54.200Z,65.66
2017-08-05T10:55:55.467Z,65.27
2017-08-05T10:56:56.693Z,65.37
2017-08-05T10:57:57.941Z,65.47
2017-08-05T10:58:59.194Z,66.24
2017-08-05T11:00:00.449Z,66.91
2017-08-05T11:01:01.705Z,65.53
2017-08-05T11:02:02.970Z,66.3
2017-08-05T11:03:04.314Z,65.63
2017-08-05T11:04:05.610Z,66.98
2017-08-05T11:05:06.854Z,66.33
2017-08-05T11:06:08.100Z,67.01
2017-08-05T11:07:09.358Z,66.05
2017-08-05T11:08:10.577Z,64.59
2017-08-05T11:09:11.985Z,64.89
2017-08-05T11:10:13.212Z,65.27
2017-08-05T11:11:14.457Z,65.3
2017-08-05T11:12:15.704Z,67.14
2017-08-05T11:13:17.070Z,66.56
2017-08-05T11:14:18.296Z,65.98
2017-08-05T11:15:19.559Z,65.53
2017-08-05T11:16:20.787Z,64.85
2017-08-05T11:17:22.024Z,64.47
2017-08-05T11:18:23.269Z,64.66
2017-08-05T11:19:24.509Z,65.14
2017-08-05T11:20:25.892Z,66.4
2017-08-05T11:21:27.134Z,65.69
2017-08-05T11:22:28.378Z,66.37
2017-08-05T11:23:29.617Z,66.17
2017-08-05T11:24:30.860Z,65.88
2017-08-05T11:25:32.118Z,65.4
2017-08-05T11:26:33.358Z,64.92
2017-08-05T11:27:34.613Z,65.3
2017-08-05T11:28:35.866Z,64.79
2017-08-05T11:29:37.113Z,65.85
2017-08-05T11:30:38.379Z,65.95
2017-08-05T11:31:39.601Z,66.33
2017-08-05T11:32:40.862Z,65.75
2017-08-05T11:33:42.135Z,66.33
2017-08-05T11:34:43.380Z,66.59
2017-08-05T11:35:44.615Z,67.17
2017-08-05T11:36:45.870Z,67.46
2017-08-05T11:37:47.115Z,66.98
2017-08-05T11:38:48.357Z,67.52
2017-08-05T11:39:49.702Z,67.62
2017-08-05T11:40:50.845Z,67.43
2017-08-05T11:41:52.097Z,67.46
2017-08-05T11:42:53.351Z,67.52
2017-08-05T11:43:54.611Z,68.88
2017-08-05T11:44:55.853Z,69.74
2017-08-05T11:45:57.101Z,69.07
2017-08-05T11:46:58.351Z,70.81
2017-08-05T11:47:59.591Z,70.04
2017-08-05T11:49:00.859Z,70.23
2017-08-05T11:50:02.083Z,71.84
2017-08-05T11:51:03.323Z,72.03
2017-08-05T11:52:04.593Z,71.74
2017-08-05T11:53:05.957Z,71.55
2017-08-05T11:54:07.266Z,72.55
2017-08-05T11:55:08.443Z,71.94
2017-08-05T11:56:09.687Z,70.58
2017-08-05T11:57:10.931Z,71.26
2017-08-05T11:58:12.329Z,71.94
2017-08-05T11:59:13.661Z,71.55
2017-08-05T12:00:14.910Z,71.64
2017-08-05T12:01:16.237Z,71.16
2017-08-05T12:02:17.482Z,71.74
2017-08-05T12:03:18.808Z,70.39
2017-08-05T12:04:20.078Z,71.74
2017-08-05T12:05:21.305Z,72.26
2017-08-05T12:06:22.566Z,71
2017-08-05T12:07:23.803Z,70.65
2017-08-05T12:08:25.036Z,70.56
2017-08-05T12:09:26.301Z,70.04
2017-08-05T12:10:27.540Z,70.14
2017-08-05T12:11:28.899Z,70.14
2017-08-05T12:12:30.152Z,69.68
2017-08-05T12:13:31.517Z,71.3
2017-08-05T12:14:32.766Z,70.14
2017-08-05T12:15:34.080Z,69.1
2017-08-05T12:16:35.314Z,68.82
2017-08-05T12:17:36.625Z,67.79
2017-08-05T12:18:37.874Z,66.85
2017-08-05T12:19:39.117Z,66.47
2017-08-05T12:20:40.351Z,66.56
2017-08-05T12:21:41.589Z,65.14
2017-08-05T12:22:42.846Z,64.17
2017-08-05T12:23:44.197Z,63.66
2017-08-05T12:24:45.447Z,63.66
2017-08-05T12:25:46.675Z,64.34
2017-08-05T12:26:47.914Z,63.76
2017-08-05T12:27:49.154Z,63.56
2017-08-05T12:28:50.427Z,64.66
2017-08-05T12:29:51.845Z,65.05
2017-08-05T12:30:53.110Z,64.47
2017-08-05T12:31:54.344Z,63.79
2017-08-05T12:32:55.579Z,63.56
2017-08-05T12:33:56.834Z,63.08
2017-08-05T12:34:58.181Z,63.76
2017-08-05T12:35:59.423Z,64.43
2017-08-05T12:37:00.664Z,64.34
2017-08-05T12:38:01.905Z,64.24
2017-08-05T12:39:03.147Z,63.92
2017-08-05T12:40:04.436Z,64.11
2017-08-05T12:41:05.677Z,64.69
2017-08-05T12:42:06.949Z,64.69
2017-08-05T12:43:08.206Z,66.43
2017-08-05T12:44:09.423Z,66.24
2017-08-05T12:45:10.662Z,64.56
2017-08-05T12:46:11.918Z,65.4
2017-08-05T12:47:13.158Z,65.88
2017-08-05T12:48:14.510Z,65.69
2017-08-05T12:49:15.757Z,66.27
2017-08-05T12:50:17.006Z,64.34
2017-08-05T12:51:18.297Z,64.14
2017-08-05T12:52:19.535Z,64.24
2017-08-05T12:53:20.777Z,64.63
2017-08-05T12:54:22.099Z,62.47
2017-08-05T12:55:23.343Z,63.34
2017-08-05T12:56:24.643Z,64.98
2017-08-05T12:57:25.892Z,63.28
2017-08-05T12:58:27.130Z,63.76
2017-08-05T12:59:28.390Z,62.86
2017-08-05T13:00:29.632Z,63.92
2017-08-05T13:01:30.910Z,63.82
2017-08-05T13:02:32.140Z,64.98
2017-08-05T13:03:33.465Z,62.57
2017-08-05T13:04:34.704Z,64.37
2017-08-05T13:05:35.956Z,64.18
2017-08-05T13:06:37.213Z,65.24
2017-08-05T13:07:38.463Z,63.79
2017-08-05T13:08:39.721Z,64.98
2017-08-05T13:09:40.980Z,63.92
2017-08-05T13:10:42.203Z,63.92
2017-08-05T13:11:43.448Z,64.4